createdAt,value
2018-06-27T00:02:15.434Z,4.15
2018-06-27T00:04:44.075Z,4.15
2018-06-27T00:07:12.510Z,4.70
2018-06-27T00:09:41.329Z,4.72
2018-06-27T00:12:10.004Z,4.55
2018-06-27T00:14:38.771Z,4.30
2018-06-27T00:17:07.469Z,4.85
2018-06-27T00:19:36.007Z,5.67
2018-06-27T00:22:04.597Z,4.85
2018-06-27T00:24:33.055Z,6.75
2018-06-27T00:27:01.506Z,5.53
2018-06-27T00:29:30.219Z,5.45
2018-06-27T00:31:58.654Z,6.63
2018-06-27T00:34:27.167Z,6.87
2018-06-27T00:36:55.667Z,4.95
2018-06-27T00:39:24.173Z,6.97
2018-06-27T00:41:52.659Z,6.00
2018-06-27T00:44:21.187Z,7.50
2018-06-27T00:46:49.714Z,8.27
2018-06-27T00:49:18.244Z,6.17
2018-06-27T00:51:46.753Z,8.20
2018-06-27T00:54:15.261Z,8.10
2018-06-27T00:56:43.682Z,6.90
2018-06-27T00:59:12.199Z,6.53
2018-06-27T01:01:40.674Z,8.55
2018-06-27T01:04:09.385Z,5.90
2018-06-27T01:06:38.098Z,6.10
2018-06-27T01:09:08.870Z,6.83
2018-06-27T01:11:37.439Z,8.97
2018-06-27T01:14:06.026Z,6.90
2018-06-27T01:16:34.762Z,8.80
2018-06-27T01:19:03.323Z,8.03
2018-06-27T01:21:32.287Z,5.77
2018-06-27T01:24:00.937Z,6.73
2018-06-27T01:26:29.378Z,6.37
2018-06-27T01:28:57.843Z,6.70
2018-06-27T01:31:26.342Z,5.63
2018-06-27T01:33:55.111Z,5.27
2018-06-27T01:36:23.611Z,5.97
2018-06-27T01:38:52.059Z,5.13
2018-06-27T01:41:20.582Z,5.33
2018-06-27T01:43:49.055Z,4.97
2018-06-27T01:46:17.535Z,5.67
2018-06-27T01:48:45.990Z,5.10
2018-06-27T01:51:14.487Z,5.60
2018-06-27T01:53:42.946Z,5.87
2018-06-27T02:02:43.022Z,5.77
2018-06-27T02:05:11.502Z,6.60
2018-06-27T02:07:40.175Z,6.13
2018-06-27T02:10:08.671Z,6.23
2018-06-27T02:12:37.189Z,6.30
2018-06-27T02:15:06.219Z,5.80
2018-06-27T02:17:34.764Z,6.40
2018-06-27T02:20:03.263Z,5.70
2018-06-27T02:22:31.754Z,7.87
2018-06-27T02:25:00.446Z,5.70
2018-06-27T02:27:28.986Z,7.13
2018-06-27T02:29:57.430Z,6.03
2018-06-27T02:32:25.944Z,7.17
2018-06-27T02:34:54.492Z,6.27
2018-06-27T02:37:23.226Z,7.67
2018-06-27T02:39:51.939Z,7.47
2018-06-27T02:42:20.619Z,9.10
2018-06-27T02:44:49.156Z,15.10
2018-06-27T02:47:17.650Z,11.23
2018-06-27T02:49:46.132Z,10.23
2018-06-27T02:52:14.653Z,11.97
2018-06-27T02:54:43.229Z,12.50
2018-06-27T02:57:11.676Z,11.80
2018-06-27T02:59:40.123Z,11.60
2018-06-27T03:02:08.667Z,12.03
2018-06-27T03:04:37.123Z,12.53
2018-06-27T03:07:05.898Z,12.40
2018-06-27T03:09:34.374Z,12.90
2018-06-27T03:12:02.937Z,13.47
2018-06-27T03:14:31.476Z,13.73
2018-06-27T03:16:59.977Z,14.07
2018-06-27T03:19:28.620Z,13.87
2018-06-27T03:21:57.115Z,14.43
2018-06-27T03:24:25.700Z,13.63
2018-06-27T03:26:54.458Z,13.33
2018-06-27T03:29:22.980Z,13.00
2018-06-27T03:31:51.427Z,13.63
2018-06-27T03:34:19.966Z,10.93
2018-06-27T03:36:49.159Z,9.63
2018-06-27T03:39:17.711Z,8.83
2018-06-27T03:41:46.207Z,9.37
2018-06-27T03:44:14.676Z,9.87
2018-06-27T03:46:43.110Z,8.30
2018-06-27T03:49:11.784Z,10.63
2018-06-27T03:51:40.355Z,13.57
2018-06-27T03:54:09.020Z,14.10
2018-06-27T03:56:37.458Z,13.30
2018-06-27T03:59:06.021Z,14.00
2018-06-27T04:01:34.531Z,14.83
2018-06-27T04:04:03.035Z,14.70
2018-06-27T04:06:31.558Z,14.97
2018-06-27T04:09:00.164Z,15.57
2018-06-27T04:11:28.741Z,14.77
2018-06-27T04:13:57.311Z,14.97
2018-06-27T04:16:25.838Z,14.17
2018-06-27T04:18:54.342Z,17.77
2018-06-27T04:21:22.863Z,13.83
2018-06-27T04:23:51.416Z,13.53
2018-06-27T04:26:19.855Z,12.13
2018-06-27T04:28:48.511Z,12.83
2018-06-27T04:31:17.042Z,14.50
2018-06-27T04:33:45.515Z,14.80
2018-06-27T04:36:14.051Z,15.07
2018-06-27T04:38:42.479Z,14.37
2018-06-27T04:41:11.020Z,14.93
2018-06-27T04:43:42.714Z,14.70
2018-06-27T04:46:11.223Z,15.87
2018-06-27T04:48:39.774Z,16.53
2018-06-27T04:51:08.335Z,11.70
2018-06-27T04:53:36.834Z,12.10
2018-06-27T04:56:05.509Z,11.47
2018-06-27T04:58:34.085Z,13.00
2018-06-27T05:01:02.623Z,16.20
2018-06-27T05:03:31.115Z,14.23
2018-06-27T05:05:59.622Z,16.40
2018-06-27T05:08:28.267Z,15.43
2018-06-27T05:10:56.758Z,16.00
2018-06-27T05:13:25.218Z,17.90
2018-06-27T05:15:53.812Z,32.90
2018-06-27T05:18:22.350Z,19.20
2018-06-27T05:20:50.890Z,17.17
2018-06-27T05:23:19.701Z,28.00
2018-06-27T05:25:48.378Z,35.83
2018-06-27T05:28:16.981Z,14.07
2018-06-27T05:30:45.515Z,16.03
2018-06-27T05:33:14.146Z,13.27
2018-06-27T05:35:42.740Z,16.10
2018-06-27T05:38:11.242Z,10.83
2018-06-27T05:40:39.742Z,9.27
2018-06-27T05:43:08.219Z,8.43
2018-06-27T05:45:36.706Z,9.20
2018-06-27T05:48:05.555Z,9.77
2018-06-27T05:50:34.161Z,8.77
2018-06-27T05:53:02.693Z,7.50
2018-06-27T05:55:31.283Z,8.63
2018-06-27T05:58:00.424Z,8.47
2018-06-27T06:00:28.920Z,15.17
2018-06-27T06:02:57.422Z,8.50
2018-06-27T06:05:25.924Z,8.93
2018-06-27T06:07:54.450Z,13.97
2018-06-27T06:10:23.118Z,9.50
2018-06-27T06:12:51.694Z,10.13
2018-06-27T06:15:20.304Z,9.00
2018-06-27T06:17:48.890Z,8.23
2018-06-27T06:20:17.554Z,7.73
2018-06-27T06:22:46.012Z,9.07
2018-06-27T06:25:15.368Z,8.77
2018-06-27T06:27:43.935Z,10.43
2018-06-27T06:30:12.608Z,15.93
2018-06-27T06:32:41.223Z,8.33
2018-06-27T06:35:09.734Z,9.27
2018-06-27T06:37:38.318Z,7.20
2018-06-27T06:40:06.834Z,6.67
2018-06-27T06:42:35.382Z,13.27
2018-06-27T06:45:03.907Z,11.37
2018-06-27T06:47:32.647Z,9.13
2018-06-27T06:50:01.255Z,11.27
2018-06-27T06:52:29.722Z,13.93
2018-06-27T06:54:59.924Z,12.40
2018-06-27T06:57:28.458Z,18.43
2018-06-27T06:59:56.926Z,12.70
2018-06-27T07:02:25.514Z,13.37
2018-06-27T07:04:54.424Z,18.03
2018-06-27T07:07:23.183Z,9.77
2018-06-27T07:09:51.963Z,13.48
2018-06-27T07:12:20.648Z,9.57
2018-06-27T07:14:49.203Z,9.70
2018-06-27T07:17:17.702Z,13.98
2018-06-27T07:19:46.201Z,12.07
2018-06-27T07:22:14.784Z,10.73
2018-06-27T07:24:43.299Z,12.63
2018-06-27T07:27:11.799Z,11.80
2018-06-27T07:29:40.258Z,13.93
2018-06-27T07:32:08.879Z,10.40
2018-06-27T07:34:37.360Z,12.57
2018-06-27T07:37:05.827Z,9.35
2018-06-27T07:39:34.326Z,14.80
2018-06-27T07:42:02.762Z,13.18
2018-06-27T07:44:31.307Z,16.57
2018-06-27T07:46:59.932Z,13.43
2018-06-27T07:49:28.496Z,13.23
2018-06-27T07:51:57.101Z,11.70
2018-06-27T07:54:25.716Z,10.43
2018-06-27T07:56:54.198Z,10.98
2018-06-27T07:59:22.731Z,10.10
2018-06-27T08:01:51.291Z,10.95
2018-06-27T08:04:19.952Z,8.23
2018-06-27T08:06:48.443Z,9.03
2018-06-27T08:09:16.892Z,7.72
2018-06-27T08:11:45.348Z,7.45
2018-06-27T08:14:13.886Z,9.23
2018-06-27T08:16:42.398Z,9.00
2018-06-27T08:19:10.911Z,6.12
2018-06-27T08:21:39.536Z,5.58
2018-06-27T08:24:08.063Z,7.50
2018-06-27T08:26:36.567Z,5.92
2018-06-27T08:29:05.455Z,4.55
2018-06-27T08:31:34.235Z,9.53
2018-06-27T08:34:02.750Z,6.78
2018-06-27T08:36:31.211Z,6.53
2018-06-27T08:38:59.752Z,8.55
2018-06-27T08:41:28.208Z,8.43
2018-06-27T08:43:56.702Z,5.92
2018-06-27T08:46:25.166Z,8.90
2018-06-27T08:48:53.718Z,5.37
2018-06-27T08:51:22.374Z,7.20
2018-06-27T08:53:50.827Z,7.08
2018-06-27T08:56:19.329Z,6.67
2018-06-27T08:58:47.888Z,10.08
2018-06-27T09:01:16.831Z,6.08
2018-06-27T09:03:45.403Z,8.78
2018-06-27T09:06:13.962Z,5.95
2018-06-27T09:08:42.405Z,5.62
2018-06-27T09:11:11.047Z,6.65
2018-06-27T09:13:39.538Z,7.70
2018-06-27T09:16:08.322Z,5.17
2018-06-27T09:18:36.984Z,5.08
2018-06-27T09:21:05.507Z,6.42
2018-06-27T09:23:33.999Z,5.22
2018-06-27T09:26:02.512Z,5.03
2018-06-27T09:28:30.984Z,5.78
2018-06-27T09:30:59.490Z,7.22
2018-06-27T09:33:27.935Z,4.33
2018-06-27T09:35:56.539Z,4.75
2018-06-27T09:38:25.032Z,4.65
2018-06-27T09:40:53.546Z,4.83
2018-06-27T09:43:22.271Z,5.72
2018-06-27T09:45:50.942Z,4.75
2018-06-27T09:48:19.592Z,4.87
2018-06-27T09:50:48.088Z,6.08
2018-06-27T09:53:16.694Z,6.83
2018-06-27T09:55:45.211Z,5.60
2018-06-27T09:58:13.659Z,6.75
2018-06-27T10:00:42.177Z,6.03
2018-06-27T10:03:11.307Z,4.78
2018-06-27T10:05:39.846Z,4.45
2018-06-27T10:08:08.675Z,5.00
2018-06-27T10:10:37.247Z,4.12
2018-06-27T10:13:05.856Z,5.58
2018-06-27T10:15:34.296Z,3.37
2018-06-27T10:18:02.762Z,3.17
2018-06-27T10:20:31.520Z,5.60
2018-06-27T10:23:00.055Z,6.78
2018-06-27T10:25:28.573Z,8.03
2018-06-27T10:27:57.063Z,2.67
2018-06-27T10:30:25.676Z,5.17
2018-06-27T10:32:54.191Z,2.33
2018-06-27T10:35:22.699Z,3.30
2018-06-27T10:37:51.248Z,7.85
2018-06-27T10:40:19.711Z,2.72
2018-06-27T10:42:48.210Z,5.35
2018-06-27T10:45:16.694Z,2.45
2018-06-27T10:47:45.179Z,2.45
2018-06-27T10:50:13.758Z,1.45
2018-06-27T10:52:42.223Z,1.80
2018-06-27T10:55:16.165Z,2.58
2018-06-27T10:57:44.598Z,4.87
2018-06-27T11:00:13.087Z,3.52
2018-06-27T11:02:41.582Z,3.45
2018-06-27T11:05:10.048Z,1.90
2018-06-27T11:07:38.608Z,2.90
2018-06-27T11:10:07.200Z,4.00
2018-06-27T11:12:35.759Z,1.77
2018-06-27T11:15:04.350Z,2.60
2018-06-27T11:17:32.880Z,1.95
2018-06-27T11:20:02.192Z,7.47
2018-06-27T11:22:30.707Z,2.25
2018-06-27T11:24:59.246Z,2.77
2018-06-27T11:27:27.758Z,3.92
2018-06-27T11:29:56.271Z,2.00
2018-06-27T11:32:25.258Z,1.25
2018-06-27T11:34:53.852Z,5.12
2018-06-27T11:37:22.564Z,1.70
2018-06-27T11:39:51.047Z,2.75
2018-06-27T11:42:19.678Z,1.90
2018-06-27T11:44:48.115Z,2.60
2018-06-27T11:47:16.654Z,4.60
2018-06-27T11:49:45.138Z,2.15
2018-06-27T11:52:13.736Z,4.15
2018-06-27T11:54:42.386Z,2.98
2018-06-27T11:57:11.135Z,3.85
2018-06-27T11:59:39.647Z,5.10
2018-06-27T12:02:08.222Z,3.35
2018-06-27T12:04:36.796Z,3.72
2018-06-27T12:07:05.544Z,3.02
2018-06-27T12:09:34.022Z,2.37
2018-06-27T12:12:02.469Z,2.70
2018-06-27T12:14:30.986Z,3.90
2018-06-27T12:16:59.441Z,4.00
2018-06-27T12:19:27.996Z,2.80
2018-06-27T12:21:56.635Z,1.82
2018-06-27T12:24:25.081Z,2.80
2018-06-27T12:26:53.646Z,3.80
2018-06-27T12:29:22.247Z,4.30
2018-06-27T12:31:51.022Z,1.82
2018-06-27T12:34:19.569Z,2.52
2018-06-27T12:36:48.131Z,2.67
2018-06-27T12:39:16.644Z,2.45
2018-06-27T12:41:45.154Z,1.90
2018-06-27T12:44:13.699Z,2.22
2018-06-27T12:46:42.259Z,1.70
2018-06-27T12:49:10.725Z,8.15
2018-06-27T12:51:39.209Z,1.77
2018-06-27T12:54:07.810Z,2.83
2018-06-27T12:56:36.540Z,1.67
2018-06-27T12:59:05.225Z,4.00
2018-06-27T13:01:33.740Z,1.75
2018-06-27T13:04:02.265Z,1.92
2018-06-27T13:06:30.718Z,2.98
2018-06-27T13:08:59.274Z,2.90
2018-06-27T13:11:27.867Z,1.60
2018-06-27T13:13:56.415Z,33.80
2018-06-27T13:16:25.082Z,2.90
2018-06-27T13:18:53.664Z,1.90
2018-06-27T13:21:22.251Z,3.65
2018-06-27T13:23:50.859Z,2.98
2018-06-27T13:26:19.431Z,1.85
2018-06-27T13:28:48.032Z,1.85
2018-06-27T13:31:16.873Z,2.75
2018-06-27T13:33:45.455Z,2.52
2018-06-27T13:36:14.043Z,4.42
2018-06-27T13:38:42.693Z,5.20
2018-06-27T13:41:11.840Z,5.40
2018-06-27T13:43:40.516Z,2.30
2018-06-27T13:46:09.045Z,2.92
2018-06-27T13:48:37.625Z,4.53
2018-06-27T13:51:06.671Z,3.92
2018-06-27T13:53:35.340Z,3.98
2018-06-27T13:56:05.088Z,4.00
2018-06-27T13:58:33.630Z,3.98
2018-06-27T14:01:02.327Z,3.25
2018-06-27T14:03:31.100Z,3.65
2018-06-27T14:05:59.711Z,2.50
2018-06-27T14:08:28.217Z,2.02
2018-06-27T14:10:56.731Z,2.92
2018-06-27T14:13:25.376Z,1.70
2018-06-27T14:15:54.396Z,2.08
2018-06-27T14:18:23.162Z,2.17
2018-06-27T14:20:51.714Z,4.92
2018-06-27T14:23:20.290Z,3.30
2018-06-27T14:25:49.026Z,2.67
2018-06-27T14:28:22.360Z,3.65
2018-06-27T14:30:51.952Z,4.42
2018-06-27T14:33:20.608Z,3.15
2018-06-27T14:35:49.408Z,2.90
2018-06-27T14:38:17.990Z,4.45
2018-06-27T14:40:46.779Z,2.58
2018-06-27T14:43:15.415Z,3.08
2018-06-27T14:45:44.309Z,3.87
2018-06-27T14:48:12.961Z,4.12
2018-06-27T14:50:41.704Z,7.20
2018-06-27T14:53:10.631Z,3.85
2018-06-27T14:55:39.220Z,2.70
2018-06-27T14:58:07.970Z,2.92
2018-06-27T15:00:36.598Z,3.27
2018-06-27T15:03:05.362Z,2.60
2018-06-27T15:05:33.857Z,3.42
2018-06-27T15:08:02.761Z,6.33
2018-06-27T15:10:31.383Z,3.52
2018-06-27T15:12:59.967Z,3.67
2018-06-27T15:15:29.189Z,5.65
2018-06-27T15:17:57.850Z,4.35
2018-06-27T15:20:26.434Z,4.65
2018-06-27T15:22:55.722Z,6.75
2018-06-27T15:25:24.321Z,7.90
2018-06-27T15:27:52.925Z,5.90
2018-06-27T15:30:21.516Z,2.98
2018-06-27T15:32:50.127Z,3.85
2018-06-27T15:35:18.701Z,3.45
2018-06-27T15:37:47.370Z,2.70
2018-06-27T15:40:15.962Z,4.78
2018-06-27T15:42:44.644Z,4.67
2018-06-27T15:45:13.215Z,4.47
2018-06-27T15:47:41.835Z,4.92
2018-06-27T15:50:10.432Z,4.20
2018-06-27T15:52:38.919Z,6.20
2018-06-27T15:55:07.519Z,2.60
2018-06-27T15:57:36.208Z,4.42
2018-06-27T16:00:05.047Z,4.58
2018-06-27T16:02:33.740Z,4.78
2018-06-27T16:05:06.907Z,7.00
2018-06-27T16:07:35.442Z,6.92
2018-06-27T16:10:04.179Z,4.10
2018-06-27T16:12:32.774Z,5.72
2018-06-27T16:15:01.291Z,6.37
2018-06-27T16:17:29.922Z,6.17
2018-06-27T16:19:58.558Z,5.45
2018-06-27T16:22:27.031Z,4.65
2018-06-27T16:24:55.528Z,5.53
2018-06-27T16:27:24.298Z,4.50
2018-06-27T16:29:52.840Z,2.62
2018-06-27T16:32:21.525Z,3.00
2018-06-27T16:34:50.230Z,4.12
2018-06-27T16:37:18.803Z,5.75
2018-06-27T16:39:47.319Z,3.95
2018-06-27T16:42:15.925Z,3.92
2018-06-27T16:44:44.556Z,7.05
2018-06-27T16:47:13.311Z,4.53
2018-06-27T16:49:41.880Z,3.47
2018-06-27T16:52:10.403Z,3.92
2018-06-27T16:54:38.990Z,2.55
2018-06-27T16:57:08.038Z,2.95
2018-06-27T16:59:36.514Z,6.20
2018-06-27T17:02:05.077Z,6.03
2018-06-27T17:04:33.858Z,4.10
2018-06-27T17:07:02.469Z,5.58
2018-06-27T17:09:30.939Z,2.65
2018-06-27T17:11:59.491Z,6.05
2018-06-27T17:14:28.080Z,6.22
2018-06-27T17:16:57.314Z,8.90
2018-06-27T17:19:25.794Z,4.60
2018-06-27T17:21:54.378Z,5.90
2018-06-27T17:24:23.411Z,3.95
2018-06-27T17:26:51.976Z,4.17
2018-06-27T17:29:21.056Z,4.10
2018-06-27T17:31:50.809Z,2.40
2018-06-27T17:34:19.594Z,3.95
2018-06-27T17:36:48.796Z,7.17
2018-06-27T17:39:17.489Z,3.20
2018-06-27T17:41:46.005Z,4.15
2018-06-27T17:44:14.677Z,5.58
2018-06-27T17:46:43.259Z,4.90
2018-06-27T17:49:11.873Z,9.60
2018-06-27T17:51:40.358Z,3.15
2018-06-27T17:54:09.020Z,3.85
2018-06-27T17:56:37.539Z,3.77
2018-06-27T17:59:06.237Z,2.30
2018-06-27T18:01:35.150Z,7.03
2018-06-27T18:04:03.852Z,5.37
2018-06-27T18:06:32.640Z,4.15
2018-06-27T18:09:01.273Z,6.47
2018-06-27T18:11:30.048Z,3.75
2018-06-27T18:13:58.575Z,5.40
2018-06-27T18:16:27.184Z,3.40
2018-06-27T18:18:56.046Z,4.55
2018-06-27T18:21:24.590Z,5.05
2018-06-27T18:23:53.175Z,3.00
2018-06-27T18:26:22.036Z,3.22
2018-06-27T18:28:50.859Z,6.78
2018-06-27T18:31:19.389Z,5.42
2018-06-27T18:33:48.071Z,3.12
2018-06-27T18:36:16.582Z,5.65
2018-06-27T18:38:45.214Z,6.95
2018-06-27T18:41:14.065Z,3.90
2018-06-27T18:43:42.644Z,4.45
2018-06-27T18:46:11.234Z,5.40
2018-06-27T18:48:39.816Z,5.85
2018-06-27T18:51:08.485Z,3.12
2018-06-27T18:53:37.371Z,4.03
2018-06-27T18:56:06.027Z,3.17
2018-06-27T18:58:35.240Z,6.03
2018-06-27T19:01:03.804Z,2.90
2018-06-27T19:03:32.374Z,5.37
2018-06-27T19:06:01.068Z,2.95
2018-06-27T19:08:29.605Z,3.58
2018-06-27T19:10:58.187Z,3.15
2018-06-27T19:13:27.243Z,2.72
2018-06-27T19:15:55.770Z,2.92
2018-06-27T19:18:24.322Z,3.27
2018-06-27T19:20:52.918Z,3.70
2018-06-27T19:23:21.468Z,5.40
2018-06-27T19:25:49.984Z,3.70
2018-06-27T19:28:18.812Z,3.25
2018-06-27T19:30:47.390Z,3.37
2018-06-27T19:33:15.891Z,5.65
2018-06-27T19:35:44.548Z,3.20
2018-06-27T19:38:13.097Z,4.25
2018-06-27T19:40:41.643Z,6.80
2018-06-27T19:43:10.186Z,8.08
2018-06-27T19:45:38.983Z,7.05
2018-06-27T19:48:07.658Z,16.27
2018-06-27T19:50:36.366Z,7.87
2018-06-27T19:53:05.016Z,5.75
2018-06-27T19:55:33.921Z,7.22
2018-06-27T19:58:02.402Z,4.85
2018-06-27T20:00:30.865Z,5.72
2018-06-27T20:02:59.402Z,4.83
2018-06-27T20:05:28.006Z,7.67
2018-06-27T20:07:57.139Z,5.50
2018-06-27T20:10:25.714Z,5.37
2018-06-27T20:12:54.355Z,3.62
2018-06-27T20:15:22.920Z,3.65
2018-06-27T20:17:51.700Z,5.40
2018-06-27T20:20:20.319Z,4.37
2018-06-27T20:22:48.895Z,4.40
2018-06-27T20:25:17.397Z,3.50
2018-06-27T20:27:46.188Z,3.60
2018-06-27T20:30:14.917Z,5.97
2018-06-27T20:32:43.592Z,3.08
2018-06-27T20:35:12.232Z,6.03
2018-06-27T20:37:40.811Z,4.35
2018-06-27T20:40:09.488Z,3.90
2018-06-27T20:42:38.060Z,3.90
2018-06-27T20:45:06.695Z,3.47
2018-06-27T20:47:35.259Z,3.05
2018-06-27T20:50:03.867Z,3.60
2018-06-27T20:52:32.456Z,5.60
2018-06-27T20:55:01.789Z,5.08
2018-06-27T20:57:30.339Z,2.92
2018-06-27T20:59:58.991Z,3.05
2018-06-27T21:02:27.707Z,4.92
2018-06-27T21:04:56.802Z,3.10
2018-06-27T21:07:27.367Z,3.42
2018-06-27T21:09:55.983Z,3.62
2018-06-27T21:12:24.519Z,3.77
2018-06-27T21:14:52.999Z,2.27
2018-06-27T21:17:21.574Z,6.10
2018-06-27T21:19:51.193Z,1.95
2018-06-27T21:22:19.755Z,2.33
2018-06-27T21:24:48.858Z,1.85
2018-06-27T21:27:17.434Z,2.77
2018-06-27T21:29:46.040Z,1.75
2018-06-27T21:32:14.569Z,6.20
2018-06-27T21:34:43.227Z,2.05
2018-06-27T21:37:11.783Z,3.55
2018-06-27T21:39:40.906Z,2.65
2018-06-27T21:42:09.563Z,3.77
2018-06-27T21:44:38.034Z,2.45
2018-06-27T21:47:06.511Z,2.22
2018-06-27T21:49:35.025Z,8.25
2018-06-27T21:52:03.523Z,2.80
2018-06-27T21:54:32.084Z,4.33
2018-06-27T21:57:00.617Z,2.65
2018-06-27T21:59:29.270Z,2.05
2018-06-27T22:01:58.033Z,4.80
2018-06-27T22:04:26.475Z,2.37
2018-06-27T22:06:55.151Z,3.95
2018-06-27T22:09:23.711Z,2.02
2018-06-27T22:11:52.326Z,2.65
2018-06-27T22:14:20.858Z,2.25
2018-06-27T22:16:49.349Z,1.82
2018-06-27T22:19:17.882Z,3.37
2018-06-27T22:21:46.380Z,5.35
2018-06-27T22:24:14.975Z,2.83
2018-06-27T22:26:43.573Z,4.03
2018-06-27T22:29:12.018Z,2.20
2018-06-27T22:31:40.744Z,4.50
2018-06-27T22:34:09.266Z,1.70
2018-06-27T22:36:38.397Z,2.80
2018-06-27T22:39:09.536Z,4.03
2018-06-27T22:41:38.192Z,1.98
2018-06-27T22:44:07.006Z,1.60
2018-06-27T22:46:35.935Z,2.73
2018-06-27T22:49:04.551Z,2.15
2018-06-27T22:51:33.147Z,3.95
2018-06-27T22:54:01.662Z,1.60
2018-06-27T22:56:30.108Z,3.12
2018-06-27T22:58:58.652Z,3.10
2018-06-27T23:01:27.266Z,4.03
2018-06-27T23:03:55.859Z,1.80
2018-06-27T23:06:24.635Z,1.90
2018-06-27T23:08:53.219Z,4.78
2018-06-27T23:11:22.099Z,6.03
2018-06-27T23:13:50.639Z,1.83
2018-06-27T23:16:19.203Z,4.00
2018-06-27T23:18:47.695Z,3.08
2018-06-27T23:21:16.558Z,4.20
2018-06-27T23:23:45.074Z,2.87
2018-06-27T23:26:13.547Z,3.10
2018-06-27T23:28:42.074Z,2.15
2018-06-27T23:31:10.528Z,1.97
2018-06-27T23:33:38.974Z,4.60
2018-06-27T23:36:07.499Z,3.08
2018-06-27T23:38:36.092Z,1.47
2018-06-27T23:41:04.696Z,6.53
2018-06-27T23:43:33.210Z,1.70
2018-06-27T23:46:01.726Z,2.33
2018-06-27T23:48:30.188Z,1.60
2018-06-27T23:50:58.717Z,2.57
2018-06-27T23:53:27.258Z,2.98
2018-06-27T23:55:55.751Z,1.80
2018-06-27T23:58:24.249Z,2.55
